Time;durP1;ratioP1;P1;durP2;ratioP2;P2;SDS_P1;SDS_P2;PMS_P1;PMS_P2;Temp;Humidity;BMP_temperature;BMP_pressure;BME280_temperature;BME280_humidity;BME280_pressure;Samples;Min_cycle;Max_cycle;Signal;HPM_P1;HPM_P2
2022/05/09 00:01:59;;;;;;;14.60;5.58;;;;;;;7.89;66.84;100652.98;1682690;84;21763;-83
2022/05/09 00:05:05;;;;;;;19.62;7.20;;;;;;;7.89;67.35;100648.04;1699982;84;21198;-83
2022/05/09 00:08:10;;;;;;;28.32;7.58;;;;;;;7.87;67.55;100649.56;1699362;84;21245;-83
2022/05/09 00:11:17;;;;;;;21.90;6.97;;;;;;;7.86;67.95;100649.22;1698962;84;21201;-83
2022/05/09 00:14:23;;;;;;;16.37;7.33;;;;;;;7.85;68.15;100646.11;1698917;83;21734;-83
2022/05/09 00:17:29;;;;;;;17.10;7.45;;;;;;;7.85;68.51;100639.81;1699592;84;21265;-78
2022/05/09 00:20:35;;;;;;;17.57;7.17;;;;;;;7.84;68.89;100634.88;1699882;84;21754;-78
2022/05/09 00:23:42;;;;;;;20.95;7.37;;;;;;;7.85;69.28;100634.36;1698846;84;21214;-78
2022/05/09 00:26:49;;;;;;;22.02;7.58;;;;;;;7.84;69.87;100623.13;1698569;84;21241;-78
2022/05/09 00:29:57;;;;;;;17.07;6.78;;;;;;;7.84;70.20;100625.84;1699879;84;21182;-78
2022/05/09 00:33:02;;;;;;;23.15;6.62;;;;;;;7.80;70.43;100621.20;1698928;84;21218;-78
2022/05/09 00:36:08;;;;;;;24.15;7.30;;;;;;;7.77;70.58;100622.88;1699558;84;21253;-78
2022/05/09 00:39:14;;;;;;;18.42;6.85;;;;;;;7.76;70.86;100612.97;1699993;84;21178;-78
2022/05/09 00:42:21;;;;;;;21.05;7.03;;;;;;;7.76;71.06;100611.61;1696470;82;21832;-78
2022/05/09 00:45:28;;;;;;;18.75;7.40;;;;;;;7.74;71.21;100611.42;1672859;85;21231;-78
2022/05/09 00:48:34;;;;;;;16.82;6.55;;;;;;;7.71;71.42;100604.40;1651672;85;21359;-78
2022/05/09 00:51:39;;;;;;;16.95;6.22;;;;;;;7.66;71.69;100606.22;1644030;87;22298;-78
2022/05/09 00:54:54;;;;;;;17.52;7.47;;;;;;;7.62;71.94;100608.02;1642451;87;21740;-78
2022/05/09 00:58:13;;;;;;;24.45;7.42;;;;;;;7.59;72.25;100601.54;1643097;87;21602;-78
2022/05/09 01:01:19;;;;;;;22.22;7.22;;;;;;;7.55;72.88;100599.61;1642836;87;21717;-78
2022/05/09 01:04:29;;;;;;;15.75;7.22;;;;;;;7.52;73.72;100595.81;1644038;87;21223;-78
2022/05/09 01:07:35;;;;;;;18.02;8.13;;;;;;;7.51;74.11;100595.98;1642643;87;21733;-78
2022/05/09 01:10:44;;;;;;;18.67;7.67;;;;;;;7.48;74.21;100598.52;1643601;87;21226;-78
2022/05/09 01:13:49;;;;;;;16.57;7.78;;;;;;;7.45;74.55;100598.80;1643079;87;21238;-78
2022/05/09 01:16:43;;;;;;;15.50;7.12;;;;;;;7.40;75.38;100588.36;1643400;87;21804;-78
2022/05/09 01:19:53;;;;;;;23.22;7.58;;;;;;;7.39;75.58;100591.24;1643921;87;21226;-78
2022/05/09 01:23:04;;;;;;;23.73;8.83;;;;;;;7.34;75.62;100588.97;1644167;87;21258;-78
2022/05/09 01:26:08;;;;;;;17.70;7.87;;;;;;;7.31;75.83;100591.97;1624740;87;21207;-78
2022/05/09 01:29:17;;;;;;;21.77;8.85;;;;;;;7.30;75.93;100586.69;1643992;87;21247;-78
2022/05/09 01:32:25;;;;;;;27.17;8.53;;;;;;;7.28;76.03;100592.77;1651215;85;21239;-78
2022/05/09 01:35:38;;;;;;;23.15;9.10;;;;;;;7.27;76.10;100589.19;1672772;85;21187;-78
2022/05/09 01:39:03;;;;;;;20.55;8.98;;;;;;;7.25;76.08;100587.13;1672722;85;21550;-78
2022/05/09 01:42:12;;;;;;;23.00;8.73;;;;;;;7.24;76.17;100586.75;1671797;85;21239;-78
2022/05/09 01:45:19;;;;;;;26.07;9.43;;;;;;;7.22;76.26;100584.70;1660048;85;21239;-79
2022/05/09 01:51:49;;;;;;;21.02;8.40;;;;;;;7.21;76.25;100572.11;1632506;88;21184;-78
2022/05/09 01:54:55;;;;;;;26.05;9.05;;;;;;;7.22;76.19;100577.89;1632000;88;22013;-78
2022/05/09 01:58:02;;;;;;;22.82;9.40;;;;;;;7.20;76.01;100576.31;1631557;88;21243;-79
2022/05/09 02:01:09;;;;;;;15.90;9.03;;;;;;;7.18;75.87;100575.97;1632113;88;21231;-79
2022/05/09 02:04:15;;;;;;;32.17;9.63;;;;;;;7.20;75.74;100576.31;1631896;88;21356;-78
2022/05/09 02:07:17;;;;;;;26.52;9.65;;;;;;;7.17;75.51;100566.60;1631528;88;21753;-78
2022/05/09 02:10:21;;;;;;;21.77;8.43;;;;;;;7.16;75.37;100571.70;1632241;88;21281;-78
2022/05/09 02:13:28;;;;;;;18.27;7.75;;;;;;;7.17;75.03;100571.53;1632317;88;21219;-78
2022/05/09 02:16:35;;;;;;;26.62;8.38;;;;;;;7.18;74.42;100567.80;1632261;88;21233;-78
2022/05/09 02:19:34;;;;;;;30.65;8.30;;;;;;;7.23;74.08;100574.67;1632399;88;21240;-78
2022/05/09 02:22:39;;;;;;;20.92;8.63;;;;;;;7.26;73.90;100573.88;1632291;88;21220;-78
2022/05/09 02:25:46;;;;;;;28.12;8.35;;;;;;;7.33;73.90;100573.63;1632222;88;21223;-78
2022/05/09 02:28:51;;;;;;;24.25;8.43;;;;;;;7.41;73.60;100576.46;1631090;88;21710;-78
2022/05/09 02:31:59;;;;;;;26.23;9.20;;;;;;;7.53;73.68;100565.37;1634073;86;21307;-78
2022/05/09 02:35:04;;;;;;;17.25;8.48;;;;;;;7.71;74.45;100569.00;1660407;86;21184;-79
2022/05/09 02:38:10;;;;;;;27.65;8.90;;;;;;;7.93;74.66;100570.46;1659632;86;21243;-78
2022/05/09 02:41:17;;;;;;;24.23;8.30;;;;;;;8.20;74.32;100568.20;1660624;86;21821;-78
2022/05/09 02:44:22;;;;;;;19.52;6.92;;;;;;;8.49;73.30;100563.91;1661457;84;21283;-78
2022/05/09 02:47:28;;;;;;;14.50;6.30;;;;;;;8.75;71.79;100570.80;1658093;86;21263;-78
2022/05/09 02:50:33;;;;;;;13.78;4.85;;;;;;;9.01;70.29;100566.72;1637484;87;21180;-78
2022/05/09 02:53:39;;;;;;;10.70;3.92;;;;;;;9.30;68.35;100566.89;1636377;87;21653;-79
2022/05/09 02:56:46;;;;;;;4.67;2.90;;;;;;;9.61;66.12;100567.23;1637409;87;21247;-78
2022/05/09 02:59:53;;;;;;;16.42;3.40;;;;;;;9.96;63.88;100564.79;1637812;87;21808;-78
2022/05/09 03:06:23;;;;;;;7.28;3.10;;;;;;;10.66;60.51;100567.16;1637576;87;21171;-78
2022/05/09 03:09:28;;;;;;;6.83;2.98;;;;;;;11.05;58.51;100562.34;1637589;87;21264;-78
2022/05/09 03:12:33;;;;;;;6.90;3.60;;;;;;;11.36;57.23;100555.62;1637419;87;21235;-79
2022/05/09 03:15:42;;;;;;;8.55;3.25;;;;;;;11.63;56.60;100562.56;1637639;87;21240;-78
2022/05/09 03:18:47;;;;;;;6.60;2.75;;;;;;;11.81;55.51;100553.58;1662752;86;21764;-79
2022/05/09 03:21:54;;;;;;;12.25;3.02;;;;;;;12.01;54.61;100555.39;1668877;86;21253;-82
2022/05/09 03:24:59;;;;;;;10.05;2.65;;;;;;;12.20;53.85;100556.30;1669141;86;21830;-78
2022/05/09 03:28:03;;;;;;;7.58;2.83;;;;;;;12.40;53.24;100555.30;1668502;86;21210;-78
2022/05/09 03:31:12;;;;;;;6.65;2.90;;;;;;;12.64;52.65;100557.00;1669097;86;21186;-78
2022/05/09 03:34:20;;;;;;;6.70;2.55;;;;;;;12.85;51.91;100556.33;1639278;87;21224;-78
2022/05/09 03:37:25;;;;;;;7.17;2.72;;;;;;;13.00;51.33;100554.47;1639015;87;21233;-78
2022/05/09 03:40:31;;;;;;;10.53;3.22;;;;;;;13.12;50.86;100550.73;1639021;87;21317;-78
2022/05/09 03:43:37;;;;;;;5.25;2.77;;;;;;;13.24;50.17;100558.05;1639000;87;21210;-78
2022/05/09 03:46:43;;;;;;;8.33;3.00;;;;;;;13.34;49.76;100559.14;1634530;86;21804;-78
2022/05/09 03:49:50;;;;;;;6.67;2.95;;;;;;;13.41;49.65;100562.33;1655864;86;21254;-78
2022/05/09 03:52:57;;;;;;;10.85;3.58;;;;;;;13.46;49.49;100561.24;1662436;86;21213;-78
2022/05/09 03:56:03;;;;;;;7.58;2.80;;;;;;;13.44;49.54;100561.94;1662447;86;21175;-78
2022/05/09 03:59:09;;;;;;;7.08;2.75;;;;;;;13.45;49.68;100559.51;1661590;86;21775;-78
2022/05/09 04:02:14;;;;;;;14.47;3.33;;;;;;;13.48;49.56;100558.30;1667754;84;21793;-78
2022/05/09 04:05:20;;;;;;;6.85;2.42;;;;;;;13.51;49.48;100557.41;1707219;84;21457;-78
2022/05/09 04:08:27;;;;;;;10.32;2.42;;;;;;;13.63;49.49;100561.03;1707401;84;21877;-77
2022/05/09 04:11:35;;;;;;;10.65;3.35;;;;;;;13.69;49.38;100557.52;1707320;84;21170;-78
2022/05/09 04:18:03;;;;;;;6.62;2.65;;;;;;;13.91;48.89;100559.83;1707088;84;21237;-78
2022/05/09 04:21:09;;;;;;;8.20;2.80;;;;;;;13.96;48.57;100559.58;1707434;84;21174;-78
2022/05/09 04:24:15;;;;;;;10.48;3.00;;;;;;;14.01;48.34;100554.34;1707400;84;21723;-78
2022/05/09 04:27:20;;;;;;;10.13;2.67;;;;;;;14.19;48.42;100554.45;1707602;84;21225;-78
2022/05/09 04:30:25;;;;;;;7.15;2.20;;;;;;;14.35;47.84;100557.48;1707224;84;21202;-78
2022/05/09 04:33:32;;;;;;;6.00;3.22;;;;;;;14.51;47.55;100559.50;1706568;84;21197;-78
2022/05/09 04:36:39;;;;;;;7.60;2.47;;;;;;;14.65;47.73;100560.49;1635297;87;21282;-78
2022/05/09 04:39:45;;;;;;;10.40;2.75;;;;;;;14.81;46.71;100560.73;1647875;84;21277;-78
2022/05/09 04:42:51;;;;;;;11.78;2.70;;;;;;;14.88;46.12;100559.44;1670071;84;21290;-78
2022/05/09 04:45:56;;;;;;;11.18;2.55;;;;;;;14.96;46.11;100567.53;1659163;84;21225;-78
2022/05/09 04:49:02;;;;;;;11.57;3.10;;;;;;;15.06;46.62;100561.19;1670516;85;21286;-78
2022/05/09 04:52:08;;;;;;;9.03;2.05;;;;;;;15.19;45.97;100561.80;1676598;85;21831;-78
2022/05/09 04:55:14;;;;;;;8.63;2.08;;;;;;;15.28;45.89;100557.84;1660496;85;21818;-78
2022/05/09 04:58:22;;;;;;;8.38;2.75;;;;;;;15.39;45.75;100553.16;1637359;87;21856;-78
2022/05/09 05:01:28;;;;;;;5.63;2.23;;;;;;;15.53;45.99;100559.09;1612047;88;21198;-78
2022/05/09 05:04:33;;;;;;;5.50;2.22;;;;;;;15.65;46.12;100559.38;1658410;86;21733;-78
2022/05/09 05:07:38;;;;;;;16.65;2.62;;;;;;;15.78;45.18;100550.34;1654876;86;21266;-78
2022/05/09 05:10:44;;;;;;;6.53;2.27;;;;;;;15.85;44.75;100548.45;1633727;88;21274;-78
2022/05/09 05:13:50;;;;;;;7.10;2.90;;;;;;;15.95;44.81;100550.33;1677437;83;21191;-78
2022/05/09 05:17:02;;;;;;;6.97;3.10;;;;;;;16.08;44.04;100542.08;1707567;83;21220;-78
2022/05/09 05:20:09;;;;;;;21.10;3.58;;;;;;;16.25;43.74;100546.70;1689288;84;21215;-78
2022/05/09 05:23:14;;;;;;;8.53;2.47;;;;;;;16.40;43.60;100540.16;1648975;87;21219;-78
2022/05/09 05:26:20;;;;;;;12.37;2.15;;;;;;;16.53;43.40;100536.05;1639398;87;21187;-78
2022/05/09 05:29:25;;;;;;;5.53;2.27;;;;;;;16.67;43.36;100531.41;1616905;88;21189;-78
2022/05/09 05:32:35;;;;;;;9.05;2.90;;;;;;;16.82;43.29;100533.45;1638079;87;21223;-78
2022/05/09 05:35:39;;;;;;;12.15;2.67;;;;;;;16.93;43.51;100532.81;1638577;87;21287;-78
2022/05/09 05:38:51;;;;;;;13.93;2.90;;;;;;;17.10;43.37;100543.77;1640262;87;21824;-78
2022/05/09 05:41:52;;;;;;;5.87;2.30;;;;;;;17.27;42.95;100535.05;1648911;87;21345;-78
2022/05/09 05:44:58;;;;;;;6.25;2.27;;;;;;;17.44;42.62;100541.80;1648894;87;21255;-78
2022/05/09 05:48:04;;;;;;;8.93;2.25;;;;;;;17.53;42.59;100541.89;1666205;82;21205;-78
2022/05/09 05:51:14;;;;;;;8.33;2.27;;;;;;;17.58;41.43;100533.80;1673975;84;21216;-78
2022/05/09 05:54:17;;;;;;;9.63;2.58;;;;;;;17.61;42.65;100529.76;1676547;85;21251;-79
2022/05/09 05:57:33;;;;;;;8.90;2.85;;;;;;;17.68;42.16;100526.95;1655643;86;21194;-78
2022/05/09 06:00:38;;;;;;;15.00;2.62;;;;;;;17.74;40.65;100523.38;1674921;84;21223;-78
2022/05/09 06:03:44;;;;;;;8.48;2.58;;;;;;;17.84;40.42;100530.67;1659978;86;21569;-78
2022/05/09 06:06:49;;;;;;;16.48;2.90;;;;;;;17.91;39.71;100521.80;1660809;86;21847;-78
2022/05/09 06:09:54;;;;;;;5.37;2.58;;;;;;;17.97;39.14;100517.30;1660763;86;21586;-78
2022/05/09 06:13:01;;;;;;;12.13;2.95;;;;;;;18.08;39.40;100516.09;1659809;86;21847;-78
2022/05/09 06:16:06;;;;;;;9.45;2.37;;;;;;;18.19;38.94;100512.30;1660232;86;21286;-78
2022/05/09 06:19:15;;;;;;;4.67;2.72;;;;;;;18.33;38.60;100511.16;1691924;84;21190;-78
2022/05/09 06:22:22;;;;;;;6.17;2.58;;;;;;;18.49;38.46;100513.41;1650648;87;21235;-83
2022/05/09 06:25:27;;;;;;;10.03;2.45;;;;;;;18.65;38.63;100510.08;1651046;87;21805;-82
2022/05/09 06:28:33;;;;;;;7.25;3.05;;;;;;;18.86;37.43;100509.41;1666993;85;21808;-78
2022/05/09 06:31:39;;;;;;;11.78;2.65;;;;;;;19.05;38.55;100507.00;1652076;86;21555;-83
2022/05/09 06:34:45;;;;;;;9.65;2.75;;;;;;;19.26;38.16;100511.30;1637306;87;22282;-78
2022/05/09 06:37:52;;;;;;;10.00;2.33;;;;;;;19.39;37.11;100510.33;1660215;86;21238;-78
2022/05/09 06:41:01;;;;;;;8.43;2.20;;;;;;;19.45;37.10;100503.84;1656950;86;21264;-78
2022/05/09 06:44:06;;;;;;;7.35;2.30;;;;;;;19.45;36.30;100503.00;1637476;87;21743;-78
2022/05/09 06:47:05;;;;;;;8.30;2.50;;;;;;;19.48;36.39;100500.63;1664564;84;21603;-79
2022/05/09 06:50:12;;;;;;;15.20;3.55;;;;;;;19.55;36.11;100497.77;1628710;87;21283;-78
2022/05/09 06:53:17;;;;;;;11.93;2.52;;;;;;;19.62;36.19;100495.27;1691890;84;21772;-78
2022/05/09 06:56:24;;;;;;;5.28;2.33;;;;;;;19.79;37.26;100494.63;1692589;84;21244;-78
2022/05/09 06:59:29;;;;;;;7.15;2.25;;;;;;;19.98;36.01;100498.23;1646460;87;21257;-78
2022/05/09 07:02:36;;;;;;;10.98;2.45;;;;;;;20.12;36.06;100490.88;1631868;87;21262;-78
2022/05/09 07:05:44;;;;;;;9.38;2.65;;;;;;;20.22;36.17;100493.63;1638895;87;21812;-79
2022/05/09 07:08:51;;;;;;;5.45;2.12;;;;;;;20.32;36.64;100487.81;1640393;86;21253;-79
2022/05/09 07:11:51;;;;;;;5.55;2.35;;;;;;;20.43;35.45;100484.78;1626624;88;21809;-78
2022/05/09 07:14:58;;;;;;;10.82;2.33;;;;;;;20.50;35.00;100484.16;1635341;87;21179;-78
2022/05/09 07:18:03;;;;;;;9.53;2.15;;;;;;;20.59;34.51;100484.13;1627956;88;21237;-79
2022/05/09 07:21:08;;;;;;;7.80;2.80;;;;;;;20.65;34.54;100474.86;1663553;85;21774;-79
2022/05/09 07:24:15;;;;;;;7.30;2.85;;;;;;;20.66;35.13;100475.16;1658775;84;21179;-78
2022/05/09 07:27:21;;;;;;;10.43;3.33;;;;;;;20.75;35.53;100472.88;1686159;84;21879;-79
2022/05/09 07:30:28;;;;;;;7.62;3.37;;;;;;;20.88;34.60;100474.02;1665734;84;21207;-78
2022/05/09 07:33:36;;;;;;;8.88;2.90;;;;;;;20.96;34.74;100470.05;1684108;85;21196;-78
2022/05/09 07:36:42;;;;;;;5.87;2.67;;;;;;;21.05;33.87;100472.77;1665238;85;21215;-78
2022/05/09 07:39:47;;;;;;;7.37;2.60;;;;;;;21.09;33.86;100469.81;1627417;87;21164;-78
2022/05/09 07:42:56;;;;;;;7.58;2.55;;;;;;;21.16;34.59;100469.12;1638355;86;21226;-78
2022/05/09 07:46:01;;;;;;;9.78;2.72;;;;;;;21.23;34.22;100464.85;1617297;88;21259;-80
2022/05/09 07:49:10;;;;;;;8.83;2.67;;;;;;;21.31;34.33;100465.05;1627931;88;21869;-79
2022/05/09 07:52:15;;;;;;;7.22;2.15;;;;;;;21.39;33.66;100468.30;1665011;86;21195;-79
2022/05/09 07:55:22;;;;;;;7.70;2.65;;;;;;;21.44;33.25;100462.85;1667486;86;21210;-79
2022/05/09 07:58:28;;;;;;;8.88;3.15;;;;;;;21.48;33.72;100464.61;1666777;84;21190;-79
2022/05/09 08:01:33;;;;;;;5.70;2.72;;;;;;;21.59;34.42;100450.36;1669277;86;21187;-79
2022/05/09 08:04:38;;;;;;;7.53;3.02;;;;;;;21.76;34.15;100458.80;1671435;85;21157;-79
2022/05/09 08:07:44;;;;;;;8.40;2.60;;;;;;;21.87;33.44;100453.73;1664454;86;21508;-80
2022/05/09 08:10:49;;;;;;;11.80;2.83;;;;;;;21.94;33.59;100444.70;1662331;86;21221;-79
2022/05/09 08:13:54;;;;;;;7.75;2.80;;;;;;;21.98;33.23;100454.26;1665891;86;21222;-79
2022/05/09 08:17:02;;;;;;;16.62;3.27;;;;;;;21.98;33.83;100452.87;1643896;84;21250;-80
2022/05/09 08:20:08;;;;;;;8.08;2.72;;;;;;;21.98;32.82;100450.63;1684063;84;21179;-79
2022/05/09 08:23:21;;;;;;;9.90;3.25;;;;;;;22.00;31.92;100438.13;1665458;86;21210;-79
2022/05/09 08:26:23;;;;;;;8.85;3.00;;;;;;;22.09;32.96;100439.42;1660030;86;21753;-79
2022/05/09 08:29:28;;;;;;;10.50;3.42;;;;;;;22.22;31.80;100436.08;1623723;88;21472;-79
2022/05/09 08:32:36;;;;;;;5.60;2.83;;;;;;;22.26;30.31;100438.67;1663264;85;21460;-80
2022/05/09 08:35:42;;;;;;;5.25;2.70;;;;;;;22.32;31.27;100441.84;1671240;85;21187;-79
2022/05/09 08:38:47;;;;;;;6.97;2.33;;;;;;;22.32;30.65;100430.69;1665522;86;21277;-79
2022/05/09 08:42:06;;;;;;;10.63;3.00;;;;;;;22.34;32.81;100431.27;1666621;86;21198;-79
2022/05/09 08:45:17;;;;;;;9.50;2.65;;;;;;;22.30;33.12;100427.29;1655464;86;21211;-80
2022/05/09 08:48:26;;;;;;;;;;;;;;;22.33;32.50;100426.80;1648294;86;21840;-79
2022/05/09 08:51:55;;;;;;;7.50;3.33;;;;;;;22.37;32.08;100419.08;1629182;86;20201;-80
2022/05/09 08:55:02;;;;;;;11.57;3.00;;;;;;;22.38;31.35;100424.11;1654648;86;21858;-79
2022/05/09 08:58:40;;;;;;;9.53;2.75;;;;;;;22.22;31.87;100418.81;1665939;86;21230;-79
2022/05/09 09:02:13;;;;;;;9.20;3.15;;;;;;;22.18;31.53;100412.89;1665417;86;21179;-80
2022/05/09 09:05:22;;;;;;;9.63;2.98;;;;;;;22.19;31.87;100413.18;1694785;84;21783;-79
2022/05/09 09:08:31;;;;;;;6.58;3.25;;;;;;;22.19;31.21;100410.39;1638225;87;22123;-80
2022/05/09 09:11:59;;;;;;;10.05;3.15;;;;;;;22.17;31.95;100413.16;1641600;87;21218;-79
2022/05/09 09:15:35;;;;;;;10.40;3.12;;;;;;;22.10;31.57;100407.69;1641379;87;21186;-80
2022/05/09 09:19:13;;;;;;;6.20;2.77;;;;;;;22.19;31.70;100410.39;1663981;84;21218;-80
2022/05/09 09:22:25;;;;;;;9.70;3.30;;;;;;;22.37;31.97;100401.52;1666408;86;21274;-79
2022/05/09 09:26:05;;;;;;;10.98;3.22;;;;;;;22.60;31.53;100394.95;1660014;86;21246;-79
2022/05/09 09:29:21;;;;;;;12.60;3.35;;;;;;;22.80;31.24;100379.93;1640572;87;21186;-79
2022/05/09 09:32:27;;;;;;;6.65;3.05;;;;;;;22.83;30.86;100385.01;1655691;84;21216;-83
2022/05/09 09:35:54;;;;;;;11.33;3.00;;;;;;;22.85;31.00;100381.40;1666867;86;21274;-84
2022/05/09 09:39:07;;;;;;;13.28;3.77;;;;;;;22.80;32.37;100390.24;1667094;86;21226;-84
2022/05/09 09:42:12;;;;;;;8.15;3.22;;;;;;;22.69;32.94;100380.33;1652701;86;21207;-80
2022/05/09 09:45:35;;;;;;;10.65;4.12;;;;;;;22.68;32.00;100378.64;1623536;87;21542;-80
2022/05/09 09:48:40;;;;;;;8.55;3.15;;;;;;;22.54;31.54;100387.05;1685609;84;21795;-80
2022/05/09 09:51:56;;;;;;;11.25;3.08;;;;;;;22.56;31.91;100383.45;1670472;84;21239;-80
2022/05/09 09:55:09;;;;;;;16.55;3.12;;;;;;;22.70;32.18;100395.95;1666723;86;21234;-80
2022/05/09 09:58:32;;;;;;;15.25;2.17;;;;;;;22.64;33.13;100429.59;1665821;86;21214;-80
2022/05/09 10:01:38;;;;;;;12.80;2.77;;;;;;;22.00;34.45;100420.58;1667357;86;21190;-79
2022/05/09 10:04:44;;;;;;;8.28;2.33;;;;;;;21.18;38.76;100432.75;1657751;86;21327;-79
2022/05/09 10:07:50;;;;;;;3.85;1.90;;;;;;;20.40;41.44;100428.30;1654231;86;21227;-79
2022/05/09 10:11:12;;;;;;;8.85;2.60;;;;;;;19.71;42.36;100420.01;1623560;88;21708;-79
2022/05/09 10:14:18;;;;;;;14.65;3.80;;;;;;;19.10;45.66;100427.31;1651238;87;21238;-79
2022/05/09 10:17:39;;;;;;;6.80;2.95;;;;;;;18.49;47.57;100441.40;1618455;87;21206;-79
2022/05/09 10:20:50;;;;;;;6.65;2.50;;;;;;;17.89;54.80;100468.61;1638238;87;21847;-80
2022/05/09 10:27:32;;;;;;;3.27;2.22;;;;;;;16.52;60.86;100459.28;1646358;86;21206;-79
2022/05/09 10:30:42;;;;;;;5.08;2.60;;;;;;;16.20;60.28;100442.15;1662324;85;21549;-79
2022/05/09 10:34:01;;;;;;;8.15;2.95;;;;;;;16.14;59.65;100451.24;1639605;86;21211;-79
2022/05/09 10:37:26;;;;;;;6.90;2.85;;;;;;;16.20;59.01;100457.33;1672266;84;21201;-79
2022/05/09 10:40:42;;;;;;;3.75;2.08;;;;;;;16.32;59.57;100457.01;1669902;86;21856;-80
2022/05/09 10:44:02;;;;;;;4.17;2.27;;;;;;;16.50;61.82;100455.86;1668842;85;21270;-79
2022/05/09 10:47:15;;;;;;;3.27;2.42;;;;;;;16.71;63.84;100441.55;1670583;84;21335;-79
2022/05/09 10:50:51;;;;;;;6.47;3.05;;;;;;;16.91;65.89;100441.55;1667950;85;21190;-80
2022/05/09 10:54:18;;;;;;;7.08;2.77;;;;;;;17.08;66.10;100439.51;1665290;85;21319;-80
2022/05/09 10:57:51;;;;;;;6.25;2.95;;;;;;;17.31;66.38;100432.12;1666746;86;21233;-80
2022/05/09 11:01:02;;;;;;;3.77;2.50;;;;;;;17.60;66.48;100426.58;1667256;86;21191;-79
2022/05/09 11:04:07;;;;;;;5.75;3.00;;;;;;;17.97;66.80;100421.28;1695602;84;21178;-80
2022/05/09 11:07:41;;;;;;;6.83;2.47;;;;;;;18.29;63.80;100424.06;1653101;86;21810;-80
2022/05/09 11:10:54;;;;;;;6.75;2.85;;;;;;;18.49;60.26;100419.24;1659817;86;21207;-79
2022/05/09 11:14:17;;;;;;;6.78;2.77;;;;;;;18.70;59.76;100420.78;1659179;86;21837;-80
2022/05/09 11:17:59;;;;;;;6.42;2.47;;;;;;;18.85;60.65;100428.20;1651401;84;21493;-80
2022/05/09 11:21:22;;;;;;;3.67;2.87;;;;;;;18.98;60.30;100424.46;1667638;84;21178;-80
2022/05/09 11:24:59;;;;;;;13.38;4.00;;;;;;;19.14;60.38;100426.63;1627768;86;21216;-80
2022/05/09 11:28:40;;;;;;;21.85;4.92;;;;;;;19.23;57.75;100445.20;1655542;86;21267;-80
2022/05/09 11:32:06;;;;;;;16.55;4.40;;;;;;;19.18;55.91;100424.78;1653271;86;21241;-80
2022/05/09 11:35:36;;;;;;;13.32;4.30;;;;;;;19.01;56.13;100438.41;1627805;88;21235;-80
2022/05/09 11:39:08;;;;;;;12.80;3.70;;;;;;;18.67;60.85;100454.44;1642039;87;21265;-80
2022/05/09 11:46:29;;;;;;;9.18;4.22;;;;;;;17.97;61.72;100430.97;1639799;87;21506;-80
2022/05/09 11:50:10;;;;;;;8.58;4.47;;;;;;;18.14;57.15;100435.45;1641465;87;21198;-80
2022/05/09 11:53:16;;;;;;;11.43;3.55;;;;;;;18.37;56.46;100427.95;1659918;86;21816;-80
2022/05/09 11:56:21;;;;;;;6.17;3.87;;;;;;;18.59;56.58;100436.20;1644918;87;21224;-80
2022/05/09 11:59:35;;;;;;;12.55;4.87;;;;;;;18.72;54.76;100438.02;1665190;86;21209;-80
2022/05/09 12:02:54;;;;;;;13.70;4.05;;;;;;;18.81;54.99;100442.73;1640985;86;21232;-81
2022/05/09 12:06:13;;;;;;;6.17;3.57;;;;;;;18.85;55.22;100451.76;1685697;85;21218;-81
2022/05/09 12:09:17;;;;;;;8.58;3.70;;;;;;;18.90;56.37;100442.76;1685680;85;21313;-80
2022/05/09 12:12:49;;;;;;;8.68;5.03;;;;;;;19.01;55.20;100433.72;1685219;85;21325;-80
2022/05/09 12:16:03;;;;;;;7.40;4.08;;;;;;;19.15;52.96;100434.43;1684847;85;21778;-80
2022/05/09 12:19:10;;;;;;;6.62;2.77;;;;;;;19.20;51.47;100437.90;1696137;84;21198;-80
2022/05/09 12:22:45;;;;;;;4.62;2.55;;;;;;;19.22;53.26;100432.95;1696932;84;21182;-80
2022/05/09 12:25:59;;;;;;;5.47;3.55;;;;;;;19.27;52.30;100427.56;1696882;84;21186;-80
2022/05/09 12:29:27;;;;;;;5.65;3.00;;;;;;;19.27;51.46;100428.95;1697142;84;21740;-80
2022/05/09 12:32:32;;;;;;;11.15;3.22;;;;;;;19.21;52.14;100422.95;1693877;84;21247;-80
2022/05/09 12:35:37;;;;;;;7.58;2.92;;;;;;;19.17;52.92;100417.55;1686003;85;21188;-80
2022/05/09 12:38:47;;;;;;;5.33;3.15;;;;;;;19.15;52.88;100427.50;1675158;85;21184;-80
2022/05/09 12:41:57;;;;;;;6.58;3.10;;;;;;;19.13;54.50;100441.56;1684989;85;21180;-79
2022/05/09 12:45:05;;;;;;;5.45;3.22;;;;;;;19.15;55.10;100435.27;1685963;85;21181;-79
2022/05/09 12:48:10;;;;;;;5.75;3.30;;;;;;;19.17;54.44;100446.67;1692029;84;21218;-80
2022/05/09 12:51:18;;;;;;;8.15;3.65;;;;;;;19.15;55.86;100449.13;1697247;84;21573;-83
2022/05/09 12:54:26;;;;;;;8.28;5.50;;;;;;;19.12;56.34;100441.81;1697260;84;21233;-83
2022/05/09 12:57:42;;;;;;;14.43;6.45;;;;;;;19.05;57.14;100444.63;1684469;85;21310;-80
2022/05/09 13:00:48;;;;;;;13.70;7.92;;;;;;;18.99;57.85;100441.39;1653115;86;21812;-79
2022/05/09 13:04:00;;;;;;;16.25;6.70;;;;;;;19.01;53.92;100448.12;1660746;86;21334;-79
2022/05/09 13:07:15;;;;;;;17.62;7.15;;;;;;;19.01;53.22;100455.89;1652212;86;21206;-79
2022/05/09 13:10:21;;;;;;;10.78;5.70;;;;;;;18.99;53.60;100440.01;1670243;86;21733;-80
2022/05/09 13:13:38;;;;;;;20.92;4.90;;;;;;;19.04;54.75;100445.71;1669421;86;21544;-79
2022/05/09 13:16:48;;;;;;;11.22;3.55;;;;;;;19.04;55.46;100445.71;1669946;86;21213;-79
2022/05/09 13:19:54;;;;;;;9.40;2.42;;;;;;;19.00;53.64;100456.09;1670299;86;21194;-79
2022/05/09 13:23:11;;;;;;;5.30;2.45;;;;;;;18.86;53.44;100448.45;1670462;86;21181;-80
2022/05/09 13:26:22;;;;;;;2.62;1.90;;;;;;;18.79;53.37;100454.60;1670442;86;21612;-79
2022/05/09 13:29:45;;;;;;;4.17;1.67;;;;;;;18.78;53.10;100454.30;1670313;86;21217;-79
2022/05/09 13:32:50;;;;;;;3.83;1.50;;;;;;;18.81;51.46;100444.13;1657995;86;21198;-79
2022/05/09 13:36:03;;;;;;;1.37;1.15;;;;;;;18.82;49.91;100468.86;1641721;87;21198;-79
2022/05/09 13:39:09;;;;;;;6.37;1.60;;;;;;;18.79;50.11;100453.22;1641440;87;21274;-79
2022/05/09 13:42:31;;;;;;;7.35;1.30;;;;;;;18.73;51.19;100455.52;1641631;87;21792;-79
2022/05/09 13:45:37;;;;;;;3.12;1.22;;;;;;;18.65;52.03;100442.20;1641808;87;21222;-79
2022/05/09 13:48:43;;;;;;;3.67;1.40;;;;;;;18.54;52.51;100444.34;1641800;87;21230;-79
2022/05/09 13:52:08;;;;;;;6.72;1.37;;;;;;;18.46;50.68;100451.53;1622257;87;21262;-79
2022/05/09 13:55:15;;;;;;;1.95;1.22;;;;;;;18.37;47.79;100441.26;1641851;87;21202;-79
2022/05/09 13:58:21;;;;;;;3.77;1.10;;;;;;;18.30;48.77;100450.67;1612854;89;21780;-79
2022/05/09 14:01:26;;;;;;;2.12;1.10;;;;;;;18.23;48.21;100442.97;1614012;89;21207;-79
2022/05/09 14:04:31;;;;;;;1.45;0.95;;;;;;;18.18;48.94;100442.25;1613835;89;21243;-79
2022/05/09 14:07:43;;;;;;;1.82;1.22;;;;;;;18.13;49.89;100441.53;1613147;89;21222;-79
2022/05/09 14:10:54;;;;;;;2.25;1.20;;;;;;;18.05;50.88;100440.41;1614029;89;22178;-79
2022/05/09 14:13:59;;;;;;;4.87;1.67;;;;;;;17.96;51.78;100445.88;1613797;89;21255;-79
2022/05/09 14:17:05;;;;;;;2.92;1.45;;;;;;;17.90;53.78;100445.39;1616711;87;21219;-79
2022/05/09 14:20:14;;;;;;;2.60;1.82;;;;;;;17.90;54.63;100441.24;1642963;86;21215;-79
2022/05/09 14:23:25;;;;;;;4.47;1.80;;;;;;;17.88;55.01;100443.40;1679769;85;21238;-79
2022/05/09 14:30:04;;;;;;;3.55;1.70;;;;;;;17.83;56.00;100429.34;1680411;85;21167;-79
2022/05/09 14:33:10;;;;;;;3.08;1.90;;;;;;;17.80;55.20;100424.28;1679986;85;21835;-79
2022/05/09 14:36:36;;;;;;;3.95;1.52;;;;;;;17.76;55.37;100426.63;1680022;85;21242;-79
2022/05/09 14:39:49;;;;;;;6.30;1.80;;;;;;;17.74;54.67;100422.41;1679976;85;21222;-79
2022/05/09 14:43:11;;;;;;;7.30;1.82;;;;;;;17.77;54.41;100421.94;1679958;85;21747;-79
2022/05/09 14:46:17;;;;;;;2.70;1.35;;;;;;;17.79;53.94;100421.20;1680172;85;21219;-79
2022/05/09 14:49:24;;;;;;;5.00;2.12;;;;;;;17.81;53.81;100430.12;1680381;85;21233;-79
2022/05/09 14:52:40;;;;;;;7.85;2.22;;;;;;;17.81;53.88;100422.66;1679960;85;21237;-79
2022/05/09 14:59:31;;;;;;;2.90;1.67;;;;;;;17.77;54.85;100433.01;1683551;83;21292;-79
2022/05/09 15:02:37;;;;;;;3.45;1.70;;;;;;;17.79;53.75;100420.67;1674692;85;21255;-79
2022/05/09 15:05:42;;;;;;;5.10;1.52;;;;;;;17.80;54.20;100417.36;1653298;86;21738;-79
2022/05/09 15:08:48;;;;;;;7.17;1.47;;;;;;;17.79;53.16;100418.44;1653235;86;21195;-79